createdAt,value
2019-05-11T00:00:55.262Z,9.10
2019-05-11T00:03:26.750Z,7.00
2019-05-11T00:05:58.069Z,9.73
2019-05-11T00:08:30.633Z,11.18
2019-05-11T00:11:02.023Z,7.60
2019-05-11T00:13:33.473Z,7.08
2019-05-11T00:16:06.391Z,7.22
2019-05-11T00:18:37.869Z,8.80
2019-05-11T00:21:09.244Z,8.15
2019-05-11T00:23:41.160Z,8.15
2019-05-11T00:26:12.555Z,6.08
2019-05-11T00:28:45.463Z,10.45
2019-05-11T00:31:17.186Z,8.95
2019-05-11T00:33:48.593Z,7.35
2019-05-11T00:36:19.974Z,8.10
2019-05-11T00:38:53.420Z,8.53
2019-05-11T00:41:26.452Z,8.28
2019-05-11T00:43:57.851Z,10.58
2019-05-11T00:46:29.208Z,12.18
2019-05-11T00:49:00.767Z,11.12
2019-05-11T00:51:32.226Z,7.75
2019-05-11T00:54:03.620Z,10.03
2019-05-11T00:56:34.916Z,11.30
2019-05-11T00:59:20.614Z,10.82
2019-05-11T01:01:39.914Z,12.00
2019-05-11T01:04:12.963Z,13.38
2019-05-11T01:06:44.271Z,9.25
2019-05-11T01:09:16.576Z,11.38
2019-05-11T01:11:47.943Z,9.60
2019-05-11T01:14:19.293Z,12.15
2019-05-11T01:16:50.654Z,7.85
2019-05-11T01:19:21.952Z,9.23
2019-05-11T01:21:53.395Z,11.60
2019-05-11T01:24:25.739Z,9.08
2019-05-11T01:26:59.411Z,9.58
2019-05-11T01:29:30.822Z,9.90
2019-05-11T01:32:04.562Z,9.90
2019-05-11T01:34:36.005Z,8.68
2019-05-11T01:37:07.379Z,11.57
2019-05-11T01:39:38.857Z,12.43
2019-05-11T01:42:10.207Z,11.40
2019-05-11T01:44:42.602Z,10.65
2019-05-11T01:47:13.932Z,11.65
2019-05-11T01:49:45.373Z,9.80
2019-05-11T01:52:16.831Z,9.85
2019-05-11T01:54:49.168Z,10.82
2019-05-11T01:57:20.467Z,14.38
2019-05-11T01:59:51.803Z,9.08
2019-05-11T02:02:23.195Z,10.68
2019-05-11T02:05:13.578Z,12.10
2019-05-11T02:07:44.984Z,12.50
2019-05-11T02:10:16.439Z,9.10
2019-05-11T02:12:47.931Z,12.95
2019-05-11T02:15:24.425Z,11.35
2019-05-11T02:17:55.758Z,9.68
2019-05-11T02:20:27.241Z,10.40
2019-05-11T02:22:58.712Z,11.75
2019-05-11T02:25:30.409Z,12.58
2019-05-11T02:28:01.811Z,11.10
2019-05-11T02:30:33.314Z,10.48
2019-05-11T02:33:06.091Z,9.28
2019-05-11T02:35:43.401Z,11.08
2019-05-11T02:38:14.676Z,9.03
2019-05-11T02:40:46.131Z,12.35
2019-05-11T02:43:17.457Z,9.28
2019-05-11T02:45:52.621Z,13.50
2019-05-11T02:48:23.973Z,10.25
2019-05-11T02:50:56.988Z,9.15
2019-05-11T02:53:30.545Z,10.25
2019-05-11T02:56:05.678Z,12.65
2019-05-11T02:58:38.081Z,12.43
2019-05-11T03:01:09.449Z,11.73
2019-05-11T03:03:41.933Z,11.93
2019-05-11T03:06:16.241Z,12.58
2019-05-11T03:08:47.644Z,14.10
2019-05-11T03:11:19.120Z,15.80
2019-05-11T03:13:50.673Z,15.03
2019-05-11T03:16:24.059Z,15.78
2019-05-11T03:18:55.508Z,16.32
2019-05-11T03:21:26.950Z,14.65
2019-05-11T03:23:58.448Z,12.20
2019-05-11T03:26:31.436Z,13.98
2019-05-11T03:29:02.889Z,12.10
2019-05-11T03:31:34.317Z,12.40
2019-05-11T03:34:07.805Z,11.65
2019-05-11T03:36:40.258Z,15.75
2019-05-11T03:39:11.856Z,13.55
2019-05-11T03:41:43.262Z,13.22
2019-05-11T03:44:14.630Z,13.93
2019-05-11T03:46:46.059Z,13.28
2019-05-11T03:49:17.497Z,14.33
2019-05-11T03:51:48.854Z,11.70
2019-05-11T03:54:21.793Z,14.38
2019-05-11T03:56:53.186Z,13.35
2019-05-11T03:59:24.487Z,11.38
2019-05-11T04:01:55.976Z,16.37
2019-05-11T04:04:27.403Z,12.25
2019-05-11T04:07:00.725Z,14.13
2019-05-11T04:09:32.298Z,10.45
2019-05-11T04:12:03.735Z,9.40
2019-05-11T04:14:35.200Z,10.45
2019-05-11T04:17:08.403Z,9.85
2019-05-11T04:19:40.963Z,11.18
2019-05-11T04:22:14.057Z,10.80
2019-05-11T04:24:46.953Z,14.33
2019-05-11T04:27:19.597Z,11.95
2019-05-11T04:29:51.218Z,12.15
2019-05-11T04:32:22.537Z,11.88
2019-05-11T04:34:53.825Z,11.78
2019-05-11T04:37:35.951Z,9.55
2019-05-11T04:40:09.733Z,14.13
2019-05-11T04:42:54.480Z,11.50
2019-05-11T04:45:17.511Z,11.55
2019-05-11T04:47:48.904Z,12.82
2019-05-11T04:50:20.273Z,12.85
2019-05-11T04:52:51.636Z,14.65
2019-05-11T04:55:23.025Z,11.48
2019-05-11T04:57:59.206Z,18.57
2019-05-11T05:00:30.656Z,14.23
2019-05-11T05:03:02.139Z,13.88
2019-05-11T05:05:33.688Z,13.78
2019-05-11T05:08:09.539Z,11.95
2019-05-11T05:10:38.140Z,11.68
2019-05-11T05:13:10.987Z,9.78
2019-05-11T05:15:44.878Z,13.45
2019-05-11T05:18:19.569Z,13.20
2019-05-11T05:20:50.914Z,13.35
2019-05-11T05:23:25.610Z,15.05
2019-05-11T05:25:57.017Z,14.47
2019-05-11T05:28:29.665Z,17.52
2019-05-11T05:31:01.202Z,15.43
2019-05-11T05:33:32.597Z,17.00
2019-05-11T05:36:03.966Z,16.12
2019-05-11T05:38:37.095Z,19.75
2019-05-11T05:41:08.575Z,18.70
2019-05-11T05:43:42.186Z,19.10
2019-05-11T05:46:13.726Z,13.90
2019-05-11T05:48:48.826Z,17.02
2019-05-11T05:51:23.240Z,24.80
2019-05-11T05:53:54.587Z,27.77
2019-05-11T05:56:25.977Z,14.98
2019-05-11T05:58:57.375Z,30.35
2019-05-11T06:01:28.818Z,11.53
2019-05-11T06:04:00.149Z,14.80
2019-05-11T06:06:31.468Z,12.98
2019-05-11T06:09:04.545Z,12.25
2019-05-11T06:11:36.153Z,37.03
2019-05-11T06:14:07.527Z,22.82
2019-05-11T06:16:38.919Z,16.60
2019-05-11T06:19:29.811Z,20.43
2019-05-11T06:22:01.191Z,30.92
2019-05-11T06:24:34.029Z,18.73
2019-05-11T06:27:05.513Z,21.52
2019-05-11T06:29:37.311Z,17.17
2019-05-11T06:32:10.141Z,21.87
2019-05-11T06:34:41.706Z,20.85
2019-05-11T06:37:13.105Z,23.02
2019-05-11T06:39:44.495Z,24.87
2019-05-11T06:42:15.959Z,23.60
2019-05-11T06:44:47.394Z,22.05
2019-05-11T06:47:18.753Z,21.85
2019-05-11T06:49:51.430Z,46.83
2019-05-11T06:52:22.817Z,20.97
2019-05-11T06:54:54.232Z,17.57
2019-05-11T06:57:25.666Z,17.55
2019-05-11T06:59:57.063Z,13.53
2019-05-11T07:02:29.706Z,24.65
2019-05-11T07:05:02.686Z,13.95
2019-05-11T07:07:47.202Z,15.75
2019-05-11T07:10:08.858Z,12.85
2019-05-11T07:12:40.343Z,8.30
2019-05-11T07:15:13.073Z,13.45
2019-05-11T07:17:44.646Z,16.32
2019-05-11T07:20:17.760Z,26.52
2019-05-11T07:22:50.132Z,9.45
2019-05-11T07:25:22.929Z,10.10
2019-05-11T07:27:54.505Z,5.95
2019-05-11T07:30:25.765Z,8.05
2019-05-11T07:32:58.148Z,8.58
2019-05-11T07:35:30.225Z,6.03
2019-05-11T07:38:01.640Z,5.40
2019-05-11T07:40:33.019Z,8.53
2019-05-11T07:43:09.204Z,4.97
2019-05-11T07:45:39.279Z,6.08
2019-05-11T07:48:10.633Z,4.40
2019-05-11T07:50:42.027Z,4.25
2019-05-11T07:53:13.487Z,4.58
2019-05-11T07:55:45.342Z,3.60
2019-05-11T07:58:20.355Z,4.83
2019-05-11T08:00:52.799Z,12.43
2019-05-11T08:03:28.355Z,5.47
2019-05-11T08:06:02.915Z,3.70
2019-05-11T08:08:35.346Z,4.95
2019-05-11T08:11:08.154Z,2.80
2019-05-11T08:13:39.873Z,3.15
2019-05-11T08:16:12.879Z,3.92
2019-05-11T08:18:47.874Z,3.72
2019-05-11T08:21:18.361Z,4.53
2019-05-11T08:23:52.240Z,5.87
2019-05-11T08:26:23.795Z,3.75
2019-05-11T08:28:59.999Z,3.33
2019-05-11T08:31:31.389Z,5.35
2019-05-11T08:34:09.075Z,3.65
2019-05-11T08:36:41.212Z,3.72
2019-05-11T08:39:19.936Z,5.22
2019-05-11T08:41:51.395Z,4.83
2019-05-11T08:44:24.045Z,6.17
2019-05-11T08:46:58.187Z,4.62
2019-05-11T08:49:30.603Z,3.15
2019-05-11T08:52:02.003Z,3.02
2019-05-11T08:54:33.433Z,5.12
2019-05-11T08:57:04.951Z,4.25
2019-05-11T08:59:38.235Z,5.62
2019-05-11T09:02:09.815Z,5.60
2019-05-11T09:04:42.016Z,6.47
2019-05-11T09:07:14.639Z,10.48
2019-05-11T09:09:48.384Z,5.55
2019-05-11T09:12:22.613Z,9.53
2019-05-11T09:14:54.308Z,4.10
2019-05-11T09:17:25.769Z,4.92
2019-05-11T09:19:58.267Z,2.72
2019-05-11T09:22:29.857Z,3.37
2019-05-11T09:25:01.265Z,7.05
2019-05-11T09:27:32.758Z,5.87
2019-05-11T09:30:08.300Z,8.43
2019-05-11T09:32:39.443Z,17.02
2019-05-11T09:35:10.973Z,4.65
2019-05-11T09:37:43.994Z,4.40
2019-05-11T09:40:19.823Z,3.12
2019-05-11T09:42:51.305Z,5.70
2019-05-11T09:45:22.758Z,3.60
2019-05-11T09:47:54.221Z,3.85
2019-05-11T09:50:28.525Z,6.97
2019-05-11T09:52:59.998Z,3.50
2019-05-11T09:55:33.685Z,3.77
2019-05-11T09:58:05.085Z,5.17
2019-05-11T10:00:38.755Z,5.08
2019-05-11T10:03:09.774Z,4.30
2019-05-11T10:05:42.729Z,5.05
2019-05-11T10:08:15.650Z,6.08
2019-05-11T10:10:48.792Z,4.10
2019-05-11T10:13:20.402Z,4.28
2019-05-11T10:16:03.791Z,5.12
2019-05-11T10:18:24.945Z,4.92
2019-05-11T10:20:58.811Z,6.83
2019-05-11T10:23:30.264Z,5.78
2019-05-11T10:26:02.829Z,6.20
2019-05-11T10:28:34.219Z,7.28
2019-05-11T10:31:08.681Z,7.70
2019-05-11T10:33:40.291Z,7.35
2019-05-11T10:36:11.710Z,6.05
2019-05-11T10:38:43.108Z,8.13
2019-05-11T10:41:18.015Z,6.25
2019-05-11T10:43:49.257Z,9.40
2019-05-11T10:46:23.455Z,8.25
2019-05-11T10:48:54.215Z,11.57
2019-05-11T10:51:28.579Z,7.03
2019-05-11T10:53:59.803Z,10.05
2019-05-11T10:56:32.331Z,11.63
2019-05-11T10:59:03.695Z,11.28
2019-05-11T11:01:38.274Z,10.70
2019-05-11T11:04:09.639Z,9.88
2019-05-11T11:06:41.130Z,11.85
2019-05-11T11:09:12.440Z,14.50
2019-05-11T11:11:44.810Z,16.95
2019-05-11T11:14:18.168Z,15.23
2019-05-11T11:16:49.720Z,17.48
2019-05-11T11:19:22.688Z,13.55
2019-05-11T11:21:54.166Z,15.30
2019-05-11T11:24:25.565Z,20.20
2019-05-11T11:26:58.065Z,15.08
2019-05-11T11:29:29.432Z,15.03
2019-05-11T11:32:00.881Z,13.62
2019-05-11T11:34:38.384Z,19.67
2019-05-11T11:37:09.966Z,20.92
2019-05-11T11:39:41.594Z,40.28
2019-05-11T11:42:13.027Z,20.32
2019-05-11T11:44:44.514Z,19.23
2019-05-11T11:47:20.952Z,22.27
2019-05-11T11:49:49.541Z,13.18
2019-05-11T11:52:24.039Z,14.63
2019-05-11T11:54:55.610Z,20.27
2019-05-11T11:57:28.378Z,11.60
2019-05-11T11:59:59.815Z,10.05
2019-05-11T12:02:31.303Z,11.10
2019-05-11T12:05:02.626Z,11.45
2019-05-11T12:07:34.174Z,17.50
2019-05-11T12:10:07.789Z,11.15
2019-05-11T12:12:39.629Z,10.05
2019-05-11T12:15:11.122Z,12.55
2019-05-11T12:17:44.953Z,13.40
2019-05-11T12:20:19.251Z,12.60
2019-05-11T12:22:50.756Z,12.63
2019-05-11T12:25:22.172Z,18.87
2019-05-11T12:27:53.651Z,11.45
2019-05-11T12:30:25.219Z,17.75
2019-05-11T12:32:57.697Z,16.95
2019-05-11T12:35:29.221Z,12.68
2019-05-11T12:38:00.793Z,16.85
2019-05-11T12:40:32.338Z,12.93
2019-05-11T12:43:03.855Z,11.43
2019-05-11T12:45:37.520Z,12.98
2019-05-11T12:48:09.097Z,13.00
2019-05-11T12:50:40.472Z,19.32
2019-05-11T12:53:13.543Z,15.78
2019-05-11T12:55:48.419Z,15.13
2019-05-11T12:58:20.614Z,12.13
2019-05-11T13:00:52.782Z,12.75
2019-05-11T13:03:25.241Z,18.73
2019-05-11T13:05:58.967Z,13.80
2019-05-11T13:08:30.598Z,14.13
2019-05-11T13:11:07.868Z,17.35
2019-05-11T13:13:39.640Z,12.75
2019-05-11T13:16:11.182Z,14.38
2019-05-11T13:18:42.610Z,15.05
2019-05-11T13:21:21.204Z,17.12
2019-05-11T13:23:53.093Z,14.53
2019-05-11T13:26:24.347Z,15.70
2019-05-11T13:28:55.747Z,13.35
2019-05-11T13:31:31.984Z,16.55
2019-05-11T13:34:04.720Z,14.58
2019-05-11T13:36:38.221Z,16.75
2019-05-11T13:39:11.320Z,16.80
2019-05-11T13:41:42.852Z,13.18
2019-05-11T13:44:14.631Z,15.40
2019-05-11T13:46:48.098Z,16.48
2019-05-11T13:49:19.425Z,16.45
2019-05-11T13:51:51.796Z,18.02
2019-05-11T13:54:23.378Z,19.32
2019-05-11T13:56:57.559Z,18.95
2019-05-11T13:59:28.431Z,21.23
2019-05-11T14:01:59.828Z,21.87
2019-05-11T14:04:31.283Z,22.10
2019-05-11T14:07:02.717Z,25.15
2019-05-11T14:09:34.376Z,23.07
2019-05-11T14:12:10.105Z,23.55
2019-05-11T14:14:41.293Z,25.08
2019-05-11T14:17:12.834Z,20.52
2019-05-11T14:19:44.398Z,21.30
2019-05-11T14:22:25.426Z,19.45
2019-05-11T14:24:58.626Z,23.62
2019-05-11T14:27:30.159Z,19.82
2019-05-11T14:30:04.029Z,24.05
2019-05-11T14:32:40.170Z,17.73
2019-05-11T14:35:12.461Z,15.00
2019-05-11T14:37:43.955Z,16.67
2019-05-11T14:40:17.655Z,14.87
2019-05-11T14:42:52.021Z,17.57
2019-05-11T14:45:23.386Z,15.08
2019-05-11T14:47:54.988Z,17.02
2019-05-11T14:50:28.179Z,14.60
2019-05-11T14:53:00.578Z,14.63
2019-05-11T14:55:31.947Z,15.65
2019-05-11T14:58:03.478Z,18.15
2019-05-11T15:00:36.957Z,14.95
2019-05-11T15:03:09.145Z,14.93
2019-05-11T15:05:41.543Z,13.08
2019-05-11T15:08:13.187Z,15.98
2019-05-11T15:10:48.864Z,15.85
2019-05-11T15:13:19.840Z,18.80
2019-05-11T15:15:51.121Z,15.72
2019-05-11T15:18:35.281Z,14.07
2019-05-11T15:20:57.910Z,11.50
2019-05-11T15:23:32.281Z,12.58
2019-05-11T15:26:07.043Z,13.00
2019-05-11T15:28:37.985Z,13.98
2019-05-11T15:31:09.703Z,14.47
2019-05-11T15:33:42.004Z,13.18
2019-05-11T15:36:13.413Z,10.88
2019-05-11T15:38:44.800Z,11.55
2019-05-11T15:41:17.687Z,11.85
2019-05-11T15:43:50.914Z,11.78
2019-05-11T15:46:22.385Z,9.98
2019-05-11T15:49:02.097Z,11.20
2019-05-11T15:51:29.086Z,9.45
2019-05-11T15:54:00.257Z,11.15
2019-05-11T15:56:31.742Z,8.98
2019-05-11T15:59:03.100Z,8.50
2019-05-11T16:01:34.649Z,10.85
2019-05-11T16:04:09.101Z,10.93
2019-05-11T16:06:40.487Z,11.20
2019-05-11T16:09:11.904Z,12.35
2019-05-11T16:11:43.210Z,8.28
2019-05-11T16:14:15.601Z,10.58
2019-05-11T16:16:48.082Z,9.08
2019-05-11T16:19:19.482Z,10.35
2019-05-11T16:21:50.933Z,11.08
2019-05-11T16:24:25.099Z,10.72
2019-05-11T16:26:58.269Z,12.90
2019-05-11T16:29:30.190Z,10.28
2019-05-11T16:32:01.576Z,10.78
2019-05-11T16:34:32.985Z,15.50
2019-05-11T16:37:05.566Z,11.95
2019-05-11T16:39:38.467Z,11.48
2019-05-11T16:42:10.098Z,12.95
2019-05-11T16:44:45.344Z,14.45
2019-05-11T16:47:18.129Z,11.73
2019-05-11T16:49:49.900Z,14.55
2019-05-11T16:52:21.282Z,11.93
2019-05-11T16:54:52.782Z,9.60
2019-05-11T16:57:24.355Z,11.22
2019-05-11T16:59:58.356Z,9.78
2019-05-11T17:02:30.444Z,9.85
2019-05-11T17:05:01.973Z,14.75
2019-05-11T17:07:34.487Z,14.28
2019-05-11T17:10:08.533Z,11.57
2019-05-11T17:12:40.115Z,15.05
2019-05-11T17:15:14.239Z,14.20
2019-05-11T17:17:45.703Z,16.60
2019-05-11T17:20:18.711Z,14.05
2019-05-11T17:22:53.962Z,13.85
2019-05-11T17:25:25.111Z,14.45
2019-05-11T17:27:58.622Z,11.75
2019-05-11T17:30:30.803Z,15.68
2019-05-11T17:33:02.162Z,17.30
2019-05-11T17:35:37.126Z,11.43
2019-05-11T17:38:09.574Z,13.45
2019-05-11T17:40:41.087Z,15.23
2019-05-11T17:43:12.509Z,11.55
2019-05-11T17:45:47.918Z,16.40
2019-05-11T17:48:19.460Z,17.80
2019-05-11T17:50:50.896Z,15.58
2019-05-11T17:53:23.344Z,15.70
2019-05-11T17:55:54.605Z,15.93
2019-05-11T17:58:26.050Z,14.93
2019-05-11T18:00:58.806Z,14.75
2019-05-11T18:03:30.630Z,16.73
2019-05-11T18:06:02.169Z,14.43
2019-05-11T18:08:33.658Z,13.40
2019-05-11T18:11:05.115Z,14.65
2019-05-11T18:13:38.983Z,12.73
2019-05-11T18:16:11.666Z,12.05
2019-05-11T18:18:43.075Z,10.53
2019-05-11T18:21:15.558Z,11.73
2019-05-11T18:23:49.618Z,10.45
2019-05-11T18:26:22.175Z,10.08
2019-05-11T18:28:53.571Z,10.03
2019-05-11T18:31:24.916Z,9.55
2019-05-11T18:33:58.081Z,10.08
2019-05-11T18:36:30.805Z,9.85
2019-05-11T18:39:06.249Z,11.75
2019-05-11T18:41:39.333Z,11.25
2019-05-11T18:44:11.778Z,11.30
2019-05-11T18:46:43.148Z,12.28
2019-05-11T18:49:14.646Z,13.98
2019-05-11T18:51:48.244Z,11.33
2019-05-11T18:54:19.325Z,14.23
2019-05-11T18:56:50.744Z,12.78
2019-05-11T18:59:22.035Z,12.98
2019-05-11T19:01:53.494Z,13.43
2019-05-11T19:04:24.966Z,16.15
2019-05-11T19:06:56.497Z,15.80
2019-05-11T19:09:28.462Z,15.05
2019-05-11T19:12:00.049Z,16.45
2019-05-11T19:14:35.127Z,15.23
2019-05-11T19:17:07.712Z,16.20
2019-05-11T19:19:39.381Z,15.23
2019-05-11T19:22:10.730Z,17.32
2019-05-11T19:24:44.224Z,16.90
2019-05-11T19:27:18.417Z,14.65
2019-05-11T19:29:49.128Z,17.70
2019-05-11T19:32:20.564Z,15.32
2019-05-11T19:34:58.103Z,15.48
2019-05-11T19:37:29.676Z,15.68
2019-05-11T19:40:01.083Z,16.10
2019-05-11T19:42:32.492Z,16.67
2019-05-11T19:45:08.549Z,18.23
2019-05-11T19:47:39.954Z,17.23
2019-05-11T19:50:11.384Z,15.20
2019-05-11T19:52:42.846Z,15.20
2019-05-11T19:55:14.379Z,15.18
2019-05-11T19:57:48.019Z,14.73
2019-05-11T20:00:20.650Z,14.83
2019-05-11T20:02:52.214Z,16.65
2019-05-11T20:05:24.650Z,14.53
2019-05-11T20:07:58.197Z,13.53
2019-05-11T20:10:29.206Z,14.15
2019-05-11T20:13:00.813Z,15.32
2019-05-11T20:15:33.478Z,14.63
2019-05-11T20:18:05.060Z,13.20
2019-05-11T20:20:37.675Z,16.25
2019-05-11T20:23:09.180Z,15.58
2019-05-11T20:25:40.518Z,13.93
2019-05-11T20:28:11.808Z,15.58
2019-05-11T20:30:43.327Z,16.25
2019-05-11T20:33:14.694Z,15.60
2019-05-11T20:35:46.117Z,15.00
2019-05-11T20:38:19.521Z,15.08
2019-05-11T20:40:50.998Z,15.10
2019-05-11T20:43:22.554Z,14.45
2019-05-11T20:45:56.220Z,19.05
2019-05-11T20:48:27.822Z,16.57
2019-05-11T20:50:59.316Z,14.93
2019-05-11T20:53:32.230Z,16.52
2019-05-11T20:56:10.510Z,19.82
2019-05-11T20:58:58.790Z,20.02
2019-05-11T21:01:31.117Z,18.82
2019-05-11T21:04:02.593Z,19.70
2019-05-11T21:06:35.551Z,16.27
2019-05-11T21:09:07.822Z,18.30
2019-05-11T21:11:40.321Z,18.17
2019-05-11T21:14:12.126Z,16.57
2019-05-11T21:16:43.474Z,17.62
2019-05-11T21:19:15.011Z,17.77
2019-05-11T21:21:52.819Z,19.62
2019-05-11T21:24:19.521Z,17.70
2019-05-11T21:26:50.879Z,23.60
2019-05-11T21:29:22.134Z,17.07
2019-05-11T21:31:53.564Z,17.23
2019-05-11T21:34:27.916Z,18.90
2019-05-11T21:36:59.721Z,15.98
2019-05-11T21:39:31.109Z,19.15
2019-05-11T21:42:02.621Z,17.95
2019-05-11T21:44:35.613Z,16.93
2019-05-11T21:47:07.711Z,18.15
2019-05-11T21:49:39.350Z,21.48
2019-05-11T21:52:10.889Z,20.23
2019-05-11T21:54:43.378Z,19.10
2019-05-11T21:57:21.768Z,21.35
2019-05-11T21:59:53.338Z,19.17
2019-05-11T22:02:25.100Z,19.62
2019-05-11T22:04:58.597Z,22.13
2019-05-11T22:07:31.865Z,20.05
2019-05-11T22:10:04.706Z,25.50
2019-05-11T22:12:38.346Z,22.90
2019-05-11T22:15:10.684Z,22.30
2019-05-11T22:17:42.178Z,25.45
2019-05-11T22:20:13.729Z,23.10
2019-05-11T22:22:47.503Z,22.75
2019-05-11T22:25:18.572Z,24.18
2019-05-11T22:27:51.042Z,24.90
2019-05-11T22:30:22.465Z,27.85
2019-05-11T22:32:53.792Z,31.37
2019-05-11T22:35:25.270Z,32.25
2019-05-11T22:37:58.651Z,39.70
2019-05-11T22:40:31.520Z,43.08
2019-05-11T22:43:02.910Z,45.08
2019-05-11T22:45:34.413Z,38.58
2019-05-11T22:48:10.230Z,42.98
2019-05-11T22:50:43.694Z,36.13
2019-05-11T22:53:14.602Z,43.30
2019-05-11T22:55:45.965Z,36.73
2019-05-11T22:58:17.912Z,40.08
2019-05-11T23:00:49.431Z,40.60
2019-05-11T23:03:22.804Z,37.58
2019-05-11T23:05:53.866Z,42.88
2019-05-11T23:08:25.246Z,37.35
2019-05-11T23:10:56.633Z,41.20
2019-05-11T23:13:28.063Z,39.33
2019-05-11T23:15:59.620Z,39.50
2019-05-11T23:18:31.044Z,40.28
2019-05-11T23:21:02.513Z,35.55
2019-05-11T23:23:33.897Z,39.58
2019-05-11T23:26:05.395Z,39.20
2019-05-11T23:28:37.874Z,42.98
2019-05-11T23:31:09.492Z,46.90
2019-05-11T23:33:40.835Z,37.65
2019-05-11T23:36:12.273Z,37.65
2019-05-11T23:38:44.621Z,42.05
2019-05-11T23:41:24.114Z,40.75
2019-05-11T23:43:49.173Z,36.98
2019-05-11T23:46:20.670Z,38.73
2019-05-11T23:48:54.194Z,38.35
2019-05-11T23:51:28.313Z,37.85
2019-05-11T23:53:59.846Z,34.63
2019-05-11T23:56:31.338Z,37.55
2019-05-11T23:59:03.675Z,37.00
